Time;durP1;ratioP1;P1;durP2;ratioP2;P2;SDS_P1;SDS_P2;PMS_P1;PMS_P2;Temp;Humidity;BMP_temperature;BMP_pressure;BME280_temperature;BME280_humidity;BME280_pressure;Samples;Min_cycle;Max_cycle;Signal;HPM_P1;HPM_P2
2023/05/18 00:02:14;;;;;;;10.48;2.22;;;10.50;99.90;;;;;;5052099;28;20119;-78
2023/05/18 00:04:41;;;;;;;6.85;2.00;;;10.50;99.90;;;;;;5035737;28;20479;-77
2023/05/18 00:07:08;;;;;;;7.45;2.15;;;10.50;99.90;;;;;;5041662;28;20018;-77
2023/05/18 00:09:35;;;;;;;9.90;2.20;;;10.60;99.90;;;;;;5060986;28;20096;-78
2023/05/18 00:12:01;;;;;;;6.70;2.15;;;10.60;99.90;;;;;;5045244;28;20045;-77
2023/05/18 00:14:28;;;;;;;10.50;3.05;;;10.70;99.90;;;;;;5046462;28;20056;-78
2023/05/18 00:16:53;;;;;;;11.45;2.15;;;10.60;99.90;;;;;;5025239;28;20029;-77
2023/05/18 00:19:23;;;;;;;6.03;2.25;;;10.70;99.90;;;;;;5044725;28;20039;-78
2023/05/18 00:21:50;;;;;;;7.82;1.92;;;10.60;99.90;;;;;;5022595;28;20363;-78
2023/05/18 00:24:17;;;;;;;9.02;2.78;;;10.60;99.90;;;;;;5026910;28;20056;-78
2023/05/18 00:26:44;;;;;;;8.70;2.42;;;10.70;99.90;;;;;;5044138;28;20159;-77
2023/05/18 00:29:11;;;;;;;9.35;2.00;;;10.60;99.90;;;;;;5043077;28;20043;-78
2023/05/18 00:31:37;;;;;;;10.68;2.22;;;10.60;99.90;;;;;;5043711;28;20033;-78
2023/05/18 00:34:07;;;;;;;12.23;2.60;;;10.60;99.90;;;;;;5045477;28;20127;-77
2023/05/18 00:36:33;;;;;;;8.98;2.10;;;10.60;99.90;;;;;;5058182;28;20112;-78
2023/05/18 00:38:59;;;;;;;6.43;2.20;;;10.60;99.90;;;;;;5026099;28;20041;-78
2023/05/18 00:41:25;;;;;;;6.63;2.20;;;10.50;99.90;;;;;;5026014;28;20051;-78
2023/05/18 00:43:55;;;;;;;5.38;2.03;;;10.60;99.90;;;;;;5042338;28;20039;-78
2023/05/18 00:46:22;;;;;;;9.27;2.03;;;10.60;99.90;;;;;;5049013;28;20028;-78
2023/05/18 00:48:49;;;;;;;7.60;2.22;;;10.60;99.90;;;;;;5063105;28;20078;-77
2023/05/18 00:51:16;;;;;;;9.57;2.50;;;10.60;99.90;;;;;;5047950;28;20029;-77
2023/05/18 00:53:42;;;;;;;9.38;2.03;;;10.70;99.90;;;;;;5024470;28;20063;-77
2023/05/18 00:56:09;;;;;;;9.23;2.28;;;10.70;99.90;;;;;;5025376;28;20057;-77
2023/05/18 00:58:35;;;;;;;11.32;2.30;;;10.70;99.90;;;;;;5029356;28;20834;-77
2023/05/18 01:01:01;;;;;;;10.40;2.47;;;10.70;99.90;;;;;;5025003;28;20033;-78
2023/05/18 01:03:29;;;;;;;5.72;2.10;;;10.70;99.90;;;;;;5022343;28;20049;-78
2023/05/18 01:05:57;;;;;;;11.15;2.33;;;10.70;99.90;;;;;;5022664;28;20394;-78
2023/05/18 01:08:26;;;;;;;10.10;2.97;;;10.70;99.90;;;;;;5054739;28;20102;-77
2023/05/18 01:11:02;;;;;;;9.07;2.08;;;10.70;99.90;;;;;;5037936;28;20039;-78
2023/05/18 01:13:41;;;;;;;10.07;2.35;;;10.80;99.90;;;;;;5036669;28;20029;-78
2023/05/18 01:16:11;;;;;;;11.13;2.88;;;10.80;99.90;;;;;;5038985;28;20584;-78
2023/05/18 01:18:45;;;;;;;6.63;2.70;;;10.70;99.90;;;;;;5021505;28;20037;-78
2023/05/18 01:21:41;;;;;;;6.63;2.50;;;10.70;99.90;;;;;;5040296;28;20105;-77
2023/05/18 01:24:41;;;;;;;12.07;2.50;;;10.70;99.90;;;;;;5037814;28;20051;-79
2023/05/18 01:27:08;;;;;;;7.03;2.20;;;10.60;99.90;;;;;;5023528;28;20136;-77
2023/05/18 01:29:34;;;;;;;8.60;2.70;;;10.60;99.90;;;;;;5023542;28;20087;-78
2023/05/18 01:32:00;;;;;;;10.38;2.50;;;10.50;99.90;;;;;;5016979;28;20115;-78
2023/05/18 01:34:26;;;;;;;13.90;2.60;;;10.50;99.90;;;;;;5052575;28;20141;-78
2023/05/18 01:36:52;;;;;;;7.85;2.38;;;10.40;99.90;;;;;;5037464;28;20028;-78
2023/05/18 01:39:18;;;;;;;9.35;2.20;;;10.40;99.90;;;;;;5045006;28;20030;-78
2023/05/18 01:42:09;;;;;;;12.75;2.40;;;10.40;99.90;;;;;;5022649;28;20025;-77
2023/05/18 01:44:46;;;;;;;6.73;2.13;;;10.40;99.90;;;;;;5055619;28;20028;-77
2023/05/18 01:47:14;;;;;;;10.88;2.70;;;10.40;99.90;;;;;;5023618;28;20284;-77
2023/05/18 01:50:04;;;;;;;10.35;2.25;;;10.40;99.90;;;;;;5042683;28;20041;-78
2023/05/18 01:52:53;;;;;;;7.93;2.30;;;10.30;99.90;;;;;;5016800;28;20400;-77
2023/05/18 01:55:20;;;;;;;8.20;2.75;;;10.30;99.90;;;;;;5022811;28;20029;-78
2023/05/18 01:57:48;;;;;;;7.85;2.35;;;10.30;99.90;;;;;;5011493;28;20136;-77
2023/05/18 02:00:16;;;;;;;9.95;2.25;;;10.30;99.90;;;;;;5039558;28;20097;-78
2023/05/18 02:02:42;;;;;;;9.57;2.60;;;10.30;99.90;;;;;;5040024;28;20056;-78
2023/05/18 02:05:11;;;;;;;9.95;2.75;;;10.30;99.90;;;;;;5023417;28;20033;-77
2023/05/18 02:07:37;;;;;;;8.13;2.65;;;10.30;99.90;;;;;;5040528;28;20021;-77
2023/05/18 02:10:03;;;;;;;8.50;2.40;;;10.30;99.90;;;;;;5038954;28;20037;-78
2023/05/18 02:12:29;;;;;;;10.20;2.47;;;10.30;99.90;;;;;;5040690;28;20033;-77
2023/05/18 02:14:57;;;;;;;7.65;2.47;;;10.20;99.90;;;;;;5022341;28;20036;-78
2023/05/18 02:17:24;;;;;;;8.48;2.80;;;10.30;99.90;;;;;;5044096;28;20915;-78
2023/05/18 02:19:50;;;;;;;8.90;2.50;;;10.30;99.90;;;;;;5034068;28;20094;-77
2023/05/18 02:22:16;;;;;;;9.57;3.33;;;10.20;99.90;;;;;;5043973;28;20040;-77
2023/05/18 02:24:41;;;;;;;12.82;2.95;;;10.20;99.90;;;;;;5041833;28;20048;-78
2023/05/18 02:27:07;;;;;;;5.75;2.15;;;10.20;99.90;;;;;;5024146;28;20419;-78
2023/05/18 02:29:32;;;;;;;12.20;2.80;;;10.20;99.90;;;;;;5051146;28;20072;-78
2023/05/18 02:31:58;;;;;;;8.82;2.15;;;10.20;99.90;;;;;;5023668;28;20104;-77
2023/05/18 02:34:24;;;;;;;7.20;2.30;;;10.20;99.90;;;;;;5021442;28;20521;-78
2023/05/18 02:36:49;;;;;;;11.95;3.03;;;10.20;99.90;;;;;;5039599;28;20124;-78
2023/05/18 02:39:16;;;;;;;11.27;2.38;;;10.20;99.90;;;;;;5055665;28;20029;-77
2023/05/18 02:41:41;;;;;;;9.48;2.60;;;10.20;99.90;;;;;;5046156;28;20179;-78
2023/05/18 02:44:07;;;;;;;12.10;2.40;;;10.30;99.90;;;;;;5041653;28;20108;-78
2023/05/18 02:46:32;;;;;;;8.75;3.03;;;10.30;99.90;;;;;;5013428;28;20121;-78
2023/05/18 02:48:58;;;;;;;10.45;3.10;;;10.20;99.90;;;;;;5024322;28;20192;-78
2023/05/18 02:51:24;;;;;;;9.88;2.97;;;10.30;99.90;;;;;;5059434;28;20032;-78
2023/05/18 02:53:50;;;;;;;11.70;3.00;;;10.30;99.90;;;;;;5020878;28;20029;-77
2023/05/18 02:56:19;;;;;;;11.02;2.90;;;10.20;99.90;;;;;;5015743;28;20036;-78
2023/05/18 02:58:45;;;;;;;7.75;3.10;;;10.30;99.90;;;;;;5056602;28;20116;-77
2023/05/18 03:01:13;;;;;;;10.38;4.05;;;10.30;99.90;;;;;;5044759;28;20108;-78
2023/05/18 03:03:40;;;;;;;7.55;3.10;;;10.20;99.90;;;;;;5058762;28;20258;-78
2023/05/18 03:06:07;;;;;;;9.07;3.00;;;10.20;99.90;;;;;;5051958;28;20029;-76
2023/05/18 03:08:35;;;;;;;7.70;2.75;;;10.20;99.90;;;;;;5034130;28;20032;-77
2023/05/18 03:11:01;;;;;;;12.45;3.40;;;10.20;99.90;;;;;;5024356;28;20034;-77
2023/05/18 03:13:27;;;;;;;10.40;3.17;;;10.20;99.90;;;;;;5031429;28;20040;-77
2023/05/18 03:15:52;;;;;;;10.82;3.38;;;10.20;99.90;;;;;;5044548;28;20174;-78
2023/05/18 03:18:18;;;;;;;15.20;3.30;;;10.20;99.90;;;;;;5037949;28;20036;-78
2023/05/18 03:20:44;;;;;;;11.20;3.63;;;10.20;99.90;;;;;;5025428;28;20026;-77
2023/05/18 03:23:10;;;;;;;7.90;2.72;;;10.20;99.90;;;;;;5042336;28;20460;-77
2023/05/18 03:25:36;;;;;;;8.18;2.65;;;10.20;99.90;;;;;;5035440;28;20022;-78
2023/05/18 03:28:05;;;;;;;11.43;3.38;;;10.20;99.90;;;;;;5035683;28;20356;-77
2023/05/18 03:30:34;;;;;;;6.85;3.20;;;10.10;99.90;;;;;;5043838;28;20072;-77
2023/05/18 03:33:00;;;;;;;7.97;3.40;;;10.10;99.90;;;;;;5047604;28;20020;-77
2023/05/18 03:35:26;;;;;;;10.52;2.75;;;10.10;99.90;;;;;;5043116;28;20056;-77
2023/05/18 03:37:52;;;;;;;12.05;2.90;;;10.00;99.90;;;;;;5055208;28;20459;-77
2023/05/18 03:40:18;;;;;;;10.25;3.20;;;10.10;99.90;;;;;;5057468;28;20642;-79
2023/05/18 03:42:44;;;;;;;12.88;3.28;;;10.10;99.90;;;;;;5044122;28;20125;-78
2023/05/18 03:45:10;;;;;;;8.82;3.35;;;10.00;99.90;;;;;;5057754;28;20056;-77
2023/05/18 03:47:37;;;;;;;9.32;3.25;;;10.10;99.90;;;;;;5026246;28;20123;-77
2023/05/18 03:50:04;;;;;;;9.68;3.03;;;10.00;99.90;;;;;;5026129;28;20037;-77
2023/05/18 03:52:32;;;;;;;11.65;3.28;;;10.00;99.90;;;;;;5024783;28;20032;-77
2023/05/18 03:54:58;;;;;;;10.95;3.15;;;10.00;99.90;;;;;;5024313;28;20028;-77
2023/05/18 03:57:24;;;;;;;14.40;3.95;;;10.00;99.90;;;;;;5024806;28;20020;-77
2023/05/18 03:59:50;;;;;;;14.52;3.38;;;10.00;99.90;;;;;;5025936;28;20476;-78
2023/05/18 04:02:15;;;;;;;10.20;2.90;;;10.00;99.90;;;;;;5044432;28;20394;-78
2023/05/18 04:04:44;;;;;;;9.80;3.30;;;10.00;99.90;;;;;;5025868;28;20040;-78
2023/05/18 04:07:10;;;;;;;9.57;3.15;;;10.00;99.90;;;;;;5042852;28;20020;-77
2023/05/18 04:09:37;;;;;;;7.95;2.90;;;10.00;99.90;;;;;;5051427;28;20048;-78
2023/05/18 04:12:03;;;;;;;4.90;2.80;;;10.00;99.90;;;;;;5059908;28;20739;-77
2023/05/18 04:14:31;;;;;;;6.97;2.85;;;9.90;99.90;;;;;;5030458;28;20021;-78
2023/05/18 04:17:03;;;;;;;10.73;3.00;;;9.90;99.90;;;;;;5029088;28;20071;-77
2023/05/18 04:19:32;;;;;;;8.13;2.90;;;9.90;99.90;;;;;;5031575;28;20060;-78
2023/05/18 04:21:58;;;;;;;8.73;2.67;;;10.00;99.90;;;;;;5024826;28;20029;-78
2023/05/18 04:24:28;;;;;;;9.80;3.35;;;10.00;99.90;;;;;;5029208;28;20039;-77
2023/05/18 04:26:53;;;;;;;10.32;2.90;;;10.00;99.90;;;;;;5035866;28;20124;-78
2023/05/18 04:29:20;;;;;;;7.38;2.45;;;10.00;99.90;;;;;;5028440;28;20140;-77
2023/05/18 04:31:48;;;;;;;7.20;2.90;;;10.00;99.90;;;;;;5023734;28;20116;-78
2023/05/18 04:34:16;;;;;;;6.75;2.85;;;10.00;99.90;;;;;;5025267;28;20033;-77
2023/05/18 04:36:43;;;;;;;10.80;2.90;;;10.00;99.90;;;;;;5041056;28;20079;-78
2023/05/18 04:39:09;;;;;;;8.23;3.03;;;10.00;99.90;;;;;;5040988;28;20041;-78
2023/05/18 04:41:35;;;;;;;8.73;2.85;;;10.00;99.90;;;;;;5039119;28;20065;-77
2023/05/18 04:44:02;;;;;;;7.35;2.72;;;10.00;99.90;;;;;;5015963;28;20483;-77
2023/05/18 04:46:28;;;;;;;10.35;2.92;;;10.00;99.90;;;;;;5042388;28;20071;-77
2023/05/18 04:48:56;;;;;;;8.80;2.83;;;10.00;99.90;;;;;;5037209;28;20096;-77
2023/05/18 04:51:23;;;;;;;9.43;2.80;;;10.00;99.90;;;;;;5033098;28;20021;-77
2023/05/18 04:53:49;;;;;;;8.18;3.17;;;10.00;99.90;;;;;;5019481;28;20096;-77
2023/05/18 04:56:16;;;;;;;10.75;3.47;;;10.00;99.90;;;;;;5030744;28;20029;-78
2023/05/18 04:58:44;;;;;;;11.30;2.60;;;10.00;99.90;;;;;;5022622;28;20464;-77
2023/05/18 05:01:11;;;;;;;8.10;2.67;;;9.90;99.90;;;;;;5045349;28;20025;-78
2023/05/18 05:03:37;;;;;;;7.07;3.10;;;9.90;99.90;;;;;;5040211;28;20056;-77
2023/05/18 05:06:03;;;;;;;10.15;2.67;;;9.90;99.90;;;;;;5040189;28;20034;-77
2023/05/18 05:08:28;;;;;;;10.48;2.60;;;9.90;99.90;;;;;;5042818;28;20048;-77
2023/05/18 05:10:54;;;;;;;9.82;2.83;;;9.90;99.90;;;;;;5021437;28;20029;-77
2023/05/18 05:13:20;;;;;;;8.10;2.65;;;9.90;99.90;;;;;;5053348;28;20086;-77
2023/05/18 05:15:46;;;;;;;10.70;2.55;;;9.90;99.90;;;;;;5044355;28;20178;-77
2023/05/18 05:18:11;;;;;;;11.07;2.70;;;9.90;99.90;;;;;;5043116;28;20104;-77
2023/05/18 05:20:37;;;;;;;11.45;2.90;;;10.00;99.90;;;;;;5040324;28;20111;-78
2023/05/18 05:23:02;;;;;;;9.13;3.20;;;10.10;99.90;;;;;;5019008;28;20033;-78
2023/05/18 05:25:28;;;;;;;9.55;2.80;;;10.10;99.90;;;;;;5024763;28;20025;-77
2023/05/18 05:27:53;;;;;;;11.65;3.03;;;10.30;99.90;;;;;;5058045;28;20099;-77
2023/05/18 05:30:19;;;;;;;9.43;2.85;;;10.50;99.90;;;;;;5041332;28;20044;-77
2023/05/18 05:32:45;;;;;;;7.60;2.50;;;10.60;99.90;;;;;;5040449;28;20433;-78
2023/05/18 05:35:10;;;;;;;9.35;3.10;;;10.80;99.90;;;;;;5038906;28;20502;-77
2023/05/18 05:37:36;;;;;;;8.38;3.67;;;11.00;99.90;;;;;;5056528;28;20032;-78
2023/05/18 05:40:04;;;;;;;48.72;25.50;;;11.10;99.90;;;;;;5021555;28;20083;-77
2023/05/18 05:42:30;;;;;;;13.93;5.15;;;11.20;99.90;;;;;;5043442;28;20107;-78
2023/05/18 05:44:56;;;;;;;17.67;6.80;;;11.20;99.90;;;;;;5021565;28;20090;-78
2023/05/18 05:47:22;;;;;;;11.10;4.50;;;11.20;99.90;;;;;;5026931;28;20534;-77
2023/05/18 05:49:47;;;;;;;10.98;3.33;;;11.20;99.90;;;;;;5041052;28;20036;-79
2023/05/18 05:52:13;;;;;;;10.68;2.70;;;11.30;99.90;;;;;;5040851;28;20025;-78
2023/05/18 05:54:40;;;;;;;6.50;2.45;;;11.40;99.90;;;;;;5041198;28;20526;-77
2023/05/18 05:57:05;;;;;;;9.40;3.55;;;11.60;99.90;;;;;;5055776;28;20029;-78
2023/05/18 05:59:31;;;;;;;5.22;2.75;;;11.70;99.90;;;;;;5041276;28;20033;-78
2023/05/18 06:01:56;;;;;;;8.15;2.90;;;12.00;99.90;;;;;;5029604;28;20589;-78
2023/05/18 06:04:22;;;;;;;6.78;2.67;;;12.30;99.90;;;;;;4697648;28;9999838;-78
2023/05/18 06:06:48;;;;;;;8.57;2.97;;;12.70;99.90;;;;;;5039132;28;20060;-78
2023/05/18 06:09:14;;;;;;;6.07;2.55;;;13.00;99.90;;;;;;5033443;28;20043;-77
2023/05/18 06:11:40;;;;;;;10.13;2.45;;;13.30;99.90;;;;;;5034075;28;20132;-78
2023/05/18 06:14:06;;;;;;;12.68;3.00;;;13.60;99.90;;;;;;5033839;28;20088;-77
2023/05/18 06:16:31;;;;;;;7.90;2.83;;;13.80;99.90;;;;;;5025310;28;20032;-77
2023/05/18 06:18:57;;;;;;;13.35;3.22;;;13.90;99.90;;;;;;5026445;28;20040;-77
2023/05/18 06:21:23;;;;;;;8.73;2.92;;;13.90;99.90;;;;;;5038991;28;20033;-77
2023/05/18 06:23:49;;;;;;;10.20;3.25;;;14.00;99.90;;;;;;5048837;28;20035;-78
2023/05/18 06:26:15;;;;;;;8.63;2.67;;;14.00;99.90;;;;;;5021818;28;20045;-77
2023/05/18 06:28:41;;;;;;;34.83;14.90;;;14.20;99.90;;;;;;5045262;28;20021;-77
2023/05/18 06:31:07;;;;;;;19.83;7.85;;;14.40;99.90;;;;;;5049304;28;20597;-77
2023/05/18 06:33:33;;;;;;;8.25;2.97;;;14.50;99.90;;;;;;5044444;28;20052;-78
2023/05/18 06:35:59;;;;;;;7.93;3.13;;;14.50;99.90;;;;;;5034402;28;20033;-78
2023/05/18 06:38:24;;;;;;;8.10;2.92;;;14.30;99.90;;;;;;5047712;28;20155;-77
2023/05/18 06:40:50;;;;;;;57.85;26.50;;;14.20;99.90;;;;;;5026372;28;20100;-77
2023/05/18 06:43:15;;;;;;;34.85;15.73;;;14.00;99.90;;;;;;5019568;28;20139;-77
2023/05/18 06:45:41;;;;;;;8.63;3.42;;;14.00;99.90;;;;;;5040690;28;20032;-78
2023/05/18 06:48:07;;;;;;;10.32;2.58;;;14.00;99.90;;;;;;5018320;28;20460;-77
2023/05/18 06:50:32;;;;;;;13.65;3.60;;;14.00;99.90;;;;;;5032341;28;20115;-77
2023/05/18 06:52:58;;;;;;;9.23;2.88;;;14.00;99.90;;;;;;5041512;28;20297;-77
2023/05/18 06:55:24;;;;;;;12.00;3.80;;;14.10;99.90;;;;;;5057872;28;20206;-78
2023/05/18 06:57:51;;;;;;;127.65;61.67;;;14.20;99.90;;;;;;5019370;28;20072;-78
2023/05/18 07:00:17;;;;;;;18.48;7.30;;;14.40;99.90;;;;;;5010453;28;20045;-76
2023/05/18 07:02:44;;;;;;;5.78;2.85;;;14.50;99.90;;;;;;5020959;28;20048;-77
2023/05/18 07:05:10;;;;;;;11.57;3.78;;;14.50;99.90;;;;;;5028893;28;20028;-76
2023/05/18 07:07:36;;;;;;;7.47;3.08;;;14.50;99.90;;;;;;5024367;28;20033;-77
2023/05/18 07:10:03;;;;;;;9.18;3.30;;;14.60;99.90;;;;;;5033545;28;20105;-76
2023/05/18 07:12:29;;;;;;;8.25;3.15;;;14.90;99.90;;;;;;5034258;28;20182;-76
2023/05/18 07:14:54;;;;;;;11.02;3.00;;;15.10;99.90;;;;;;5017889;28;20676;-76
2023/05/18 07:17:21;;;;;;;8.80;2.50;;;15.30;99.90;;;;;;5032673;28;20076;-76
2023/05/18 07:19:46;;;;;;;7.95;2.50;;;15.30;99.90;;;;;;5022142;28;20435;-76
2023/05/18 07:22:12;;;;;;;8.90;2.22;;;15.70;99.80;;;;;;5014599;28;20048;-76
2023/05/18 07:24:38;;;;;;;7.18;2.03;;;16.40;99.90;;;;;;5040028;28;20040;-76
2023/05/18 07:27:03;;;;;;;7.05;2.20;;;17.00;98.50;;;;;;5036042;28;20025;-76
2023/05/18 07:29:29;;;;;;;9.05;2.40;;;17.20;94.60;;;;;;5038678;28;20121;-76
2023/05/18 07:31:55;;;;;;;12.05;2.63;;;17.20;92.20;;;;;;5044329;28;20480;-78
2023/05/18 07:34:22;;;;;;;9.73;1.98;;;17.30;95.50;;;;;;5045145;28;20036;-78
2023/05/18 07:36:47;;;;;;;6.75;1.90;;;17.40;94.90;;;;;;5044633;28;20025;-78
2023/05/18 07:39:17;;;;;;;9.45;1.92;;;17.50;91.60;;;;;;5043534;28;20111;-77
2023/05/18 07:41:44;;;;;;;6.93;1.70;;;17.60;86.00;;;;;;5025542;28;20098;-76
2023/05/18 07:44:11;;;;;;;9.88;1.80;;;18.70;68.50;;;;;;5041357;28;20096;-77
2023/05/18 07:46:39;;;;;;;8.10;1.33;;;20.40;61.00;;;;;;5037767;28;20025;-78
2023/05/18 07:49:05;;;;;;;6.05;1.67;;;22.50;54.00;;;;;;5035029;28;20033;-78
2023/05/18 07:51:31;;;;;;;4.55;1.48;;;24.90;42.40;;;;;;5022408;28;20036;-75
2023/05/18 07:53:56;;;;;;;7.63;1.80;;;26.70;37.60;;;;;;5047177;28;20024;-76
2023/05/18 07:56:25;;;;;;;6.43;1.30;;;28.20;34.60;;;;;;5031640;28;20053;-77
2023/05/18 07:58:51;;;;;;;10.30;1.98;;;29.00;34.10;;;;;;5037085;28;20056;-76
2023/05/18 08:01:17;;;;;;;6.20;1.40;;;29.90;32.70;;;;;;5040002;28;20152;-78
2023/05/18 08:03:42;;;;;;;4.88;1.50;;;31.00;31.30;;;;;;5013769;28;20749;-78
2023/05/18 08:06:08;;;;;;;6.15;1.67;;;32.00;30.40;;;;;;5029305;28;20029;-77
2023/05/18 08:08:36;;;;;;;7.75;1.75;;;32.40;29.90;;;;;;5026127;28;20034;-76
2023/05/18 08:11:03;;;;;;;8.82;1.58;;;32.50;30.10;;;;;;5009208;28;20052;-76
2023/05/18 08:13:29;;;;;;;10.80;1.80;;;32.40;28.80;;;;;;5023357;28;20044;-76
2023/05/18 08:15:54;;;;;;;8.88;1.45;;;31.90;31.30;;;;;;5044552;28;20514;-77
2023/05/18 08:18:21;;;;;;;7.75;1.52;;;30.40;28.90;;;;;;5033152;28;20534;-77
2023/05/18 08:20:48;;;;;;;6.40;1.63;;;29.50;34.00;;;;;;5038788;28;20024;-76
2023/05/18 08:23:14;;;;;;;8.25;1.45;;;28.50;34.80;;;;;;5019280;28;20560;-76
2023/05/18 08:25:39;;;;;;;5.03;1.45;;;27.30;34.40;;;;;;5037726;28;20033;-76
2023/05/18 08:28:05;;;;;;;6.18;1.55;;;26.80;34.30;;;;;;5037875;28;20036;-76
2023/05/18 08:30:31;;;;;;;5.78;1.55;;;26.40;36.20;;;;;;5038650;28;20041;-76
2023/05/18 08:32:56;;;;;;;6.38;1.70;;;24.80;34.50;;;;;;5056573;28;20417;-76
2023/05/18 08:35:22;;;;;;;9.55;1.45;;;24.80;39.50;;;;;;5049180;28;20120;-76
2023/05/18 08:37:49;;;;;;;5.93;1.77;;;24.70;37.20;;;;;;5039842;28;20048;-76
2023/05/18 08:40:15;;;;;;;6.35;1.25;;;24.60;35.60;;;;;;5022318;28;20067;-77
2023/05/18 08:43:10;;;;;;;5.63;1.40;;;24.70;39.00;;;;;;5019731;28;20021;-76
2023/05/18 08:46:02;;;;;;;6.82;1.65;;;24.80;38.80;;;;;;5049779;28;20083;-76
2023/05/18 08:48:31;;;;;;;6.53;1.38;;;23.70;39.10;;;;;;5033310;28;20033;-76
2023/05/18 08:50:57;;;;;;;6.00;1.80;;;23.90;39.30;;;;;;5025537;28;20045;-76
2023/05/18 08:53:24;;;;;;;7.05;1.83;;;24.20;41.80;;;;;;5033797;28;20436;-77
2023/05/18 08:55:53;;;;;;;6.70;1.42;;;24.00;38.40;;;;;;5040310;28;20033;-77
2023/05/18 08:58:20;;;;;;;4.85;1.35;;;24.50;40.70;;;;;;5033166;28;20111;-77
2023/05/18 09:00:46;;;;;;;4.82;1.33;;;25.90;37.30;;;;;;5039478;28;20036;-76
2023/05/18 09:03:13;;;;;;;7.82;1.77;;;28.50;34.30;;;;;;5030716;28;20491;-77
2023/05/18 09:05:40;;;;;;;5.97;1.35;;;30.50;30.10;;;;;;5022861;28;20388;-77
2023/05/18 09:08:07;;;;;;;5.47;1.50;;;32.70;30.20;;;;;;5030635;28;20075;-77
2023/05/18 09:10:33;;;;;;;7.15;1.52;;;34.40;29.40;;;;;;5054466;28;20087;-77
2023/05/18 09:13:00;;;;;;;5.72;1.42;;;35.80;27.40;;;;;;5055404;28;20028;-77
2023/05/18 09:15:26;;;;;;;8.48;1.70;;;36.50;25.10;;;;;;5039849;28;20040;-77
2023/05/18 09:17:52;;;;;;;7.30;1.60;;;36.60;25.30;;;;;;5037566;28;20078;-75
2023/05/18 09:20:19;;;;;;;6.95;1.83;;;37.60;24.90;;;;;;5035347;28;20030;-76
2023/05/18 09:22:44;;;;;;;5.78;1.50;;;37.60;25.40;;;;;;5012221;28;20067;-76
2023/05/18 09:25:10;;;;;;;7.35;1.83;;;37.40;25.00;;;;;;5028561;28;20036;-76
2023/05/18 09:27:37;;;;;;;5.75;1.70;;;37.30;24.50;;;;;;5043241;28;20021;-77
2023/05/18 09:30:03;;;;;;;8.18;2.05;;;35.70;25.00;;;;;;4681477;28;10000046;-76
2023/05/18 09:32:35;;;;;;;8.10;1.90;;;33.60;26.40;;;;;;5025904;28;20029;-76
2023/05/18 09:35:07;;;;;;;7.88;2.03;;;31.30;28.20;;;;;;5025290;28;20041;-76
2023/05/18 09:37:34;;;;;;;10.57;2.00;;;28.30;30.60;;;;;;5034321;28;20326;-76
2023/05/18 09:40:00;;;;;;;10.85;2.05;;;26.70;34.70;;;;;;5020443;28;20922;-76
2023/05/18 09:42:43;;;;;;;6.65;2.08;;;25.30;36.70;;;;;;5033963;28;20086;-75
2023/05/18 09:45:22;;;;;;;7.03;2.03;;;24.00;43.10;;;;;;5027761;28;20143;-75
2023/05/18 09:47:52;;;;;;;8.90;2.30;;;25.90;41.20;;;;;;5034899;28;20029;-76
2023/05/18 09:50:25;;;;;;;6.72;2.17;;;27.70;34.50;;;;;;5021852;28;20452;-77
2023/05/18 09:52:51;;;;;;;8.00;2.30;;;29.00;32.30;;;;;;5031959;28;20054;-76
2023/05/18 09:55:19;;;;;;;10.48;2.55;;;29.30;32.50;;;;;;5039800;28;20668;-76
2023/05/18 09:57:48;;;;;;;6.97;1.98;;;29.70;30.10;;;;;;5030025;28;20104;-76
2023/05/18 10:00:15;;;;;;;10.27;2.22;;;30.70;29.80;;;;;;5011593;28;20055;-76
2023/05/18 10:02:47;;;;;;;11.25;2.20;;;31.80;27.00;;;;;;5033295;28;20550;-76
2023/05/18 10:05:26;;;;;;;6.93;2.20;;;33.60;28.20;;;;;;5031233;28;20029;-76
2023/05/18 10:07:53;;;;;;;7.13;2.50;;;34.70;26.70;;;;;;5044141;28;20029;-77
2023/05/18 10:10:21;;;;;;;7.07;2.00;;;35.80;25.70;;;;;;5036616;28;20140;-77
2023/05/18 10:12:50;;;;;;;5.38;1.70;;;36.60;27.20;;;;;;5056539;28;20044;-76
2023/05/18 10:15:19;;;;;;;7.45;2.10;;;37.60;24.40;;;;;;5020490;28;20456;-77
2023/05/18 10:17:47;;;;;;;11.35;2.08;;;36.80;25.10;;;;;;5021380;28;20075;-76
2023/05/18 10:20:18;;;;;;;6.63;1.73;;;36.60;25.20;;;;;;5018943;28;20420;-76
2023/05/18 10:22:47;;;;;;;6.93;2.10;;;36.90;22.90;;;;;;5034945;28;20033;-77
2023/05/18 10:25:25;;;;;;;5.45;1.50;;;35.40;23.20;;;;;;5018163;28;20033;-76
2023/05/18 10:27:56;;;;;;;5.90;1.83;;;35.60;26.50;;;;;;5036890;28;20118;-77
2023/05/18 10:30:22;;;;;;;7.13;2.03;;;36.50;25.20;;;;;;5037465;28;20455;-76
2023/05/18 10:32:49;;;;;;;4.32;1.80;;;36.80;24.30;;;;;;5038912;28;20055;-77
2023/05/18 10:35:15;;;;;;;6.45;1.92;;;37.00;23.70;;;;;;5032238;28;20071;-76
2023/05/18 10:37:48;;;;;;;4.38;1.40;;;36.10;23.50;;;;;;5034566;28;20567;-76
2023/05/18 10:40:15;;;;;;;4.15;1.50;;;35.70;25.50;;;;;;5037161;28;20081;-77
2023/05/18 10:42:42;;;;;;;4.40;1.70;;;35.20;24.50;;;;;;5039305;28;20044;-77
2023/05/18 10:45:09;;;;;;;6.43;1.77;;;34.30;23.30;;;;;;4691017;28;9999970;-77
2023/05/18 10:47:38;;;;;;;5.55;1.60;;;33.10;24.80;;;;;;5033611;28;20526;-76
2023/05/18 10:50:04;;;;;;;5.03;1.92;;;32.30;25.30;;;;;;5035550;28;20045;-76
2023/05/18 10:52:32;;;;;;;7.70;2.13;;;32.00;26.40;;;;;;5042783;28;20040;-76
2023/05/18 10:54:59;;;;;;;6.90;1.70;;;32.70;27.00;;;;;;5048659;28;20087;-76
2023/05/18 10:57:33;;;;;;;5.05;1.70;;;32.90;26.00;;;;;;5044372;28;20606;-77
2023/05/18 10:59:59;;;;;;;6.68;2.13;;;33.10;28.60;;;;;;5037909;28;20128;-76
2023/05/18 11:02:26;;;;;;;4.93;1.80;;;33.40;27.90;;;;;;5038889;28;20653;-77
2023/05/18 11:04:53;;;;;;;6.07;1.95;;;33.80;25.40;;;;;;5027644;28;20048;-77
2023/05/18 11:07:20;;;;;;;5.25;1.73;;;32.70;26.30;;;;;;5050530;28;20025;-77
2023/05/18 11:09:48;;;;;;;7.15;1.95;;;30.30;28.60;;;;;;5038139;28;20048;-75
2023/05/18 11:12:16;;;;;;;6.35;1.83;;;28.60;31.20;;;;;;5021898;28;20129;-77
2023/05/18 11:14:50;;;;;;;6.07;2.10;;;29.50;34.70;;;;;;5028921;28;20112;-77
2023/05/18 11:17:28;;;;;;;9.13;2.13;;;29.70;27.80;;;;;;5042086;28;20515;-77
2023/05/18 11:23:17;;;;;;;8.68;2.00;;;29.50;32.20;;;;;;5043667;28;20117;-77
2023/05/18 11:25:43;;;;;;;6.28;1.75;;;28.50;32.80;;;;;;5013231;28;20041;-78
2023/05/18 11:28:12;;;;;;;5.70;1.65;;;27.80;32.90;;;;;;5035102;28;20029;-77
2023/05/18 11:30:40;;;;;;;6.38;2.28;;;26.40;31.60;;;;;;5013525;28;20041;-77
2023/05/18 11:33:27;;;;;;;5.13;1.70;;;26.30;32.10;;;;;;5027684;28;20127;-76
2023/05/18 11:36:03;;;;;;;6.70;1.77;;;25.80;38.80;;;;;;5016593;28;21193;-77
2023/05/18 11:39:05;;;;;;;6.80;1.90;;;25.50;36.60;;;;;;5031291;28;20129;-77
2023/05/18 11:41:38;;;;;;;5.00;1.75;;;25.70;38.60;;;;;;5036883;28;20419;-78
2023/05/18 11:44:05;;;;;;;11.73;2.38;;;24.90;38.30;;;;;;4689802;28;10000569;-78
2023/05/18 11:46:32;;;;;;;8.35;2.05;;;25.10;41.30;;;;;;5023528;28;20029;-77
2023/05/18 11:49:03;;;;;;;5.75;1.92;;;24.70;38.20;;;;;;5020193;28;20064;-77
2023/05/18 11:51:31;;;;;;;6.10;1.85;;;23.90;40.00;;;;;;5022855;28;20033;-77
2023/05/18 11:53:58;;;;;;;9.05;2.10;;;23.80;44.70;;;;;;5022983;28;20444;-77
2023/05/18 11:56:25;;;;;;;6.93;2.33;;;24.10;39.50;;;;;;5031408;28;20022;-77
2023/05/18 11:59:13;;;;;;;8.23;1.95;;;23.90;39.40;;;;;;5051497;28;20021;-78
2023/05/18 12:01:40;;;;;;;6.18;2.17;;;24.30;40.90;;;;;;5020813;28;20061;-78
2023/05/18 12:04:06;;;;;;;5.82;2.03;;;24.80;39.70;;;;;;5046824;28;20364;-77
2023/05/18 12:06:32;;;;;;;8.10;2.08;;;26.00;42.60;;;;;;5050511;28;20029;-77
2023/05/18 12:08:58;;;;;;;6.10;2.00;;;24.80;36.50;;;;;;5024620;28;20036;-78
2023/05/18 12:11:25;;;;;;;4.85;1.80;;;24.70;39.40;;;;;;5043557;28;20033;-78
2023/05/18 12:13:53;;;;;;;5.10;1.75;;;24.60;39.40;;;;;;5040794;28;20794;-78
2023/05/18 12:16:20;;;;;;;4.38;1.88;;;24.10;38.60;;;;;;5032188;28;20042;-77
2023/05/18 12:18:49;;;;;;;5.90;1.77;;;24.10;40.20;;;;;;5051789;28;20060;-78
2023/05/18 12:21:21;;;;;;;8.25;1.73;;;24.50;41.60;;;;;;5041158;28;20107;-78
2023/05/18 12:23:46;;;;;;;7.43;2.10;;;24.40;37.10;;;;;;5042312;28;20030;-78
2023/05/18 12:26:13;;;;;;;6.70;1.50;;;24.90;41.70;;;;;;5004597;28;20030;-78
2023/05/18 12:28:39;;;;;;;6.07;2.08;;;24.70;39.30;;;;;;5028753;28;20110;-78
2023/05/18 12:31:07;;;;;;;6.82;2.10;;;24.20;39.60;;;;;;5057733;28;20037;-77
2023/05/18 12:33:33;;;;;;;6.40;1.75;;;23.90;41.20;;;;;;5038805;28;20108;-77
2023/05/18 12:35:59;;;;;;;5.78;2.08;;;24.10;41.00;;;;;;5028504;28;20039;-77
2023/05/18 12:38:26;;;;;;;4.65;1.83;;;23.80;40.00;;;;;;5061662;28;20029;-77
2023/05/18 12:40:54;;;;;;;7.95;2.35;;;24.00;40.70;;;;;;5024939;28;20093;-77
2023/05/18 12:43:20;;;;;;;7.28;2.08;;;23.90;41.90;;;;;;5057842;28;20060;-77
2023/05/18 12:45:45;;;;;;;6.30;2.10;;;24.10;45.00;;;;;;5039043;28;20078;-77
2023/05/18 12:48:12;;;;;;;6.60;2.28;;;23.80;42.70;;;;;;5022674;28;20036;-77
2023/05/18 12:50:49;;;;;;;4.13;2.10;;;23.50;47.30;;;;;;5051698;28;20048;-77